sensor_id;sensor_type;location;lat;lon;timestamp;pressure;altitude;pressure_sealevel;temperature;humidity
18858;BME280;9558;50.178;8.370;2023-05-14T00:01:30;98396.75;;;9.37;100.00
18858;BME280;9558;50.178;8.370;2023-05-14T00:04:17;98396.13;;;9.35;100.00
18858;BME280;9558;50.178;8.370;2023-05-14T00:07:04;98392.25;;;9.31;100.00
18858;BME280;9558;50.178;8.370;2023-05-14T00:09:51;98389.97;;;9.28;100.00
18858;BME280;9558;50.178;8.370;2023-05-14T00:12:38;98383.19;;;9.27;100.00
18858;BME280;9558;50.178;8.370;2023-05-14T00:15:25;98386.75;;;9.26;100.00
18858;BME280;9558;50.178;8.370;2023-05-14T00:18:13;98387.91;;;9.23;100.00
18858;BME280;9558;50.178;8.370;2023-05-14T00:21:00;98378.69;;;9.21;100.00
18858;BME280;9558;50.178;8.370;2023-05-14T00:23:47;98380.59;;;9.19;100.00
18858;BME280;9558;50.178;8.370;2023-05-14T00:26:33;98380.13;;;9.15;100.00
18858;BME280;9558;50.178;8.370;2023-05-14T00:29:20;98374.16;;;9.14;100.00
18858;BME280;9558;50.178;8.370;2023-05-14T00:32:07;98372.38;;;9.07;100.00
18858;BME280;9558;50.178;8.370;2023-05-14T00:34:55;98375.28;;;9.04;100.00
18858;BME280;9558;50.178;8.370;2023-05-14T00:37:42;98368.97;;;8.98;100.00
18858;BME280;9558;50.178;8.370;2023-05-14T00:40:28;98371.72;;;8.96;100.00
18858;BME280;9558;50.178;8.370;2023-05-14T00:43:15;98367.69;;;8.94;100.00
18858;BME280;9558;50.178;8.370;2023-05-14T00:46:02;98361.22;;;8.90;100.00
18858;BME280;9558;50.178;8.370;2023-05-14T00:48:49;98361.22;;;8.90;100.00
18858;BME280;9558;50.178;8.370;2023-05-14T00:51:37;98360.25;;;8.82;100.00
18858;BME280;9558;50.178;8.370;2023-05-14T00:54:26;98363.00;;;8.81;100.00
18858;BME280;9558;50.178;8.370;2023-05-14T00:57:13;98361.69;;;8.77;100.00
18858;BME280;9558;50.178;8.370;2023-05-14T01:00:00;98358.63;;;8.73;100.00
18858;BME280;9558;50.178;8.370;2023-05-14T01:02:47;98363.44;;;8.68;100.00
18858;BME280;9558;50.178;8.370;2023-05-14T01:05:38;98358.28;;;8.68;100.00
18858;BME280;9558;50.178;8.370;2023-05-14T01:08:32;98363.09;;;8.63;100.00
18858;BME280;9558;50.178;8.370;2023-05-14T01:11:24;98360.53;;;8.63;100.00
18858;BME280;9558;50.178;8.370;2023-05-14T01:14:18;98352.47;;;8.58;100.00
18858;BME280;9558;50.178;8.370;2023-05-14T01:17:08;98354.69;;;8.53;100.00
18858;BME280;9558;50.178;8.370;2023-05-14T01:19:56;98349.84;;;8.50;100.00
18858;BME280;9558;50.178;8.370;2023-05-14T01:22:45;98353.22;;;8.50;100.00
18858;BME280;9558;50.178;8.370;2023-05-14T01:25:32;98345.03;;;8.46;100.00
18858;BME280;9558;50.178;8.370;2023-05-14T01:28:19;98339.31;;;8.43;100.00
18858;BME280;9558;50.178;8.370;2023-05-14T01:31:14;98338.84;;;8.39;100.00
18858;BME280;9558;50.178;8.370;2023-05-14T01:34:04;98339.16;;;8.36;100.00
18858;BME280;9558;50.178;8.370;2023-05-14T01:36:52;98335.59;;;8.37;100.00
18858;BME280;9558;50.178;8.370;2023-05-14T01:39:43;98333.50;;;8.33;100.00
18858;BME280;9558;50.178;8.370;2023-05-14T01:42:31;98335.44;;;8.30;100.00
18858;BME280;9558;50.178;8.370;2023-05-14T01:45:19;98330.59;;;8.27;100.00
18858;BME280;9558;50.178;8.370;2023-05-14T01:48:05;98346.88;;;8.28;100.00
18858;BME280;9558;50.178;8.370;2023-05-14T01:50:52;98340.91;;;8.27;100.00
18858;BME280;9558;50.178;8.370;2023-05-14T01:53:39;98345.56;;;8.24;100.00
18858;BME280;9558;50.178;8.370;2023-05-14T01:56:27;98340.41;;;8.24;100.00
18858;BME280;9558;50.178;8.370;2023-05-14T01:59:14;98334.59;;;8.22;100.00
18858;BME280;9558;50.178;8.370;2023-05-14T02:02:01;98333.34;;;8.26;100.00
18858;BME280;9558;50.178;8.370;2023-05-14T02:04:48;98337.34;;;8.28;100.00
18858;BME280;9558;50.178;8.370;2023-05-14T02:07:35;98337.84;;;8.32;100.00
18858;BME280;9558;50.178;8.370;2023-05-14T02:10:22;98334.81;;;8.37;100.00
18858;BME280;9558;50.178;8.370;2023-05-14T02:13:10;98337.56;;;8.43;100.00
18858;BME280;9558;50.178;8.370;2023-05-14T02:15:56;98326.00;;;8.47;100.00
18858;BME280;9558;50.178;8.370;2023-05-14T02:18:43;98335.84;;;8.52;100.00
18858;BME280;9558;50.178;8.370;2023-05-14T02:21:30;98337.31;;;8.55;100.00
18858;BME280;9558;50.178;8.370;2023-05-14T02:24:17;98329.09;;;8.59;100.00
18858;BME280;9558;50.178;8.370;2023-05-14T02:27:04;98330.03;;;8.58;100.00
18858;BME280;9558;50.178;8.370;2023-05-14T02:29:52;98324.72;;;8.60;100.00
18858;BME280;9558;50.178;8.370;2023-05-14T02:32:41;98320.22;;;8.54;100.00
18858;BME280;9558;50.178;8.370;2023-05-14T02:35:27;98321.47;;;8.50;100.00
18858;BME280;9558;50.178;8.370;2023-05-14T02:38:14;98315.69;;;8.47;100.00
18858;BME280;9558;50.178;8.370;2023-05-14T02:41:01;98320.19;;;8.45;100.00
18858;BME280;9558;50.178;8.370;2023-05-14T02:43:47;98320.47;;;8.42;100.00
18858;BME280;9558;50.178;8.370;2023-05-14T02:46:35;98320.28;;;8.36;100.00
18858;BME280;9558;50.178;8.370;2023-05-14T02:49:22;98316.91;;;8.35;100.00
18858;BME280;9558;50.178;8.370;2023-05-14T02:52:09;98316.28;;;8.33;100.00
18858;BME280;9558;50.178;8.370;2023-05-14T02:54:55;98316.41;;;8.31;100.00
18858;BME280;9558;50.178;8.370;2023-05-14T02:57:42;98317.53;;;8.29;100.00
18858;BME280;9558;50.178;8.370;2023-05-14T03:00:29;98318.34;;;8.29;100.00
18858;BME280;9558;50.178;8.370;2023-05-14T03:03:17;98315.56;;;8.23;100.00
18858;BME280;9558;50.178;8.370;2023-05-14T03:06:04;98315.88;;;8.20;100.00
18858;BME280;9558;50.178;8.370;2023-05-14T03:08:51;98307.84;;;8.15;100.00
18858;BME280;9558;50.178;8.370;2023-05-14T03:11:37;98308.78;;;8.13;100.00
18858;BME280;9558;50.178;8.370;2023-05-14T03:14:24;98305.53;;;8.11;100.00
18858;BME280;9558;50.178;8.370;2023-05-14T03:17:11;98302.81;;;8.05;100.00
18858;BME280;9558;50.178;8.370;2023-05-14T03:19:59;98303.75;;;8.04;100.00
18858;BME280;9558;50.178;8.370;2023-05-14T03:22:46;98308.13;;;8.03;100.00
18858;BME280;9558;50.178;8.370;2023-05-14T03:25:32;98302.44;;;8.00;100.00
18858;BME280;9558;50.178;8.370;2023-05-14T03:28:19;98298.09;;;8.00;100.00
18858;BME280;9558;50.178;8.370;2023-05-14T03:31:06;98300.81;;;7.99;100.00
18858;BME280;9558;50.178;8.370;2023-05-14T03:33:53;98300.03;;;7.98;100.00
18858;BME280;9558;50.178;8.370;2023-05-14T03:36:41;98301.97;;;7.96;100.00
18858;BME280;9558;50.178;8.370;2023-05-14T03:39:28;98305.19;;;7.98;100.00
18858;BME280;9558;50.178;8.370;2023-05-14T03:42:14;98293.25;;;7.97;100.00
18858;BME280;9558;50.178;8.370;2023-05-14T03:45:01;98298.41;;;7.97;100.00
18858;BME280;9558;50.178;8.370;2023-05-14T03:47:48;98301.66;;;7.99;100.00
18858;BME280;9558;50.178;8.370;2023-05-14T03:50:34;98302.75;;;7.96;100.00
18858;BME280;9558;50.178;8.370;2023-05-14T03:53:22;98305.19;;;7.98;100.00
18858;BME280;9558;50.178;8.370;2023-05-14T03:56:09;98301.66;;;7.99;100.00
18858;BME280;9558;50.178;8.370;2023-05-14T03:58:56;98306.50;;;8.02;100.00
18858;BME280;9558;50.178;8.370;2023-05-14T04:01:43;98297.13;;;8.01;100.00
18858;BME280;9558;50.178;8.370;2023-05-14T04:04:30;98308.13;;;8.03;100.00
18858;BME280;9558;50.178;8.370;2023-05-14T04:07:17;98304.88;;;8.01;100.00
18858;BME280;9558;50.178;8.370;2023-05-14T04:10:05;98305.19;;;7.98;100.00
18858;BME280;9558;50.178;8.370;2023-05-14T04:12:52;98307.13;;;7.96;100.00
18858;BME280;9558;50.178;8.370;2023-05-14T04:15:40;98309.38;;;7.99;100.00
18858;BME280;9558;50.178;8.370;2023-05-14T04:18:26;98303.56;;;7.97;100.00
18858;BME280;9558;50.178;8.370;2023-05-14T04:21:14;98300.53;;;8.02;100.00
18858;BME280;9558;50.178;8.370;2023-05-14T04:24:00;98310.97;;;8.00;100.00
18858;BME280;9558;50.178;8.370;2023-05-14T04:26:48;98304.06;;;8.01;100.00
18858;BME280;9558;50.178;8.370;2023-05-14T04:29:35;98304.56;;;8.04;100.00
18858;BME280;9558;50.178;8.370;2023-05-14T04:32:21;98311.34;;;8.05;100.00
18858;BME280;9558;50.178;8.370;2023-05-14T04:35:09;98314.25;;;8.10;100.00
18858;BME280;9558;50.178;8.370;2023-05-14T04:37:57;98309.09;;;8.10;100.00
18858;BME280;9558;50.178;8.370;2023-05-14T04:40:44;98311.53;;;8.12;100.00
18858;BME280;9558;50.178;8.370;2023-05-14T04:43:32;98318.94;;;8.15;100.00
18858;BME280;9558;50.178;8.370;2023-05-14T04:46:19;98314.94;;;8.21;100.00
18858;BME280;9558;50.178;8.370;2023-05-14T04:49:05;98318.97;;;8.23;100.00
18858;BME280;9558;50.178;8.370;2023-05-14T04:51:52;98316.56;;;8.30;100.00
18858;BME280;9558;50.178;8.370;2023-05-14T04:54:39;98317.88;;;8.34;100.00
18858;BME280;9558;50.178;8.370;2023-05-14T04:57:25;98323.06;;;8.42;100.00
18858;BME280;9558;50.178;8.370;2023-05-14T05:00:14;98325.38;;;8.54;100.00
18858;BME280;9558;50.178;8.370;2023-05-14T05:03:01;98325.06;;;8.65;100.00
18858;BME280;9558;50.178;8.370;2023-05-14T05:05:48;98331.84;;;8.74;100.00
18858;BME280;9558;50.178;8.370;2023-05-14T05:08:37;98331.69;;;8.84;100.00
18858;BME280;9558;50.178;8.370;2023-05-14T05:11:24;98323.97;;;8.92;100.00
18858;BME280;9558;50.178;8.370;2023-05-14T05:14:11;98320.72;;;8.98;100.00
18858;BME280;9558;50.178;8.370;2023-05-14T05:16:59;98320.13;;;9.05;100.00
18858;BME280;9558;50.178;8.370;2023-05-14T05:19:45;98317.66;;;9.11;100.00
18858;BME280;9558;50.178;8.370;2023-05-14T05:22:32;98314.13;;;9.21;100.00
18858;BME280;9558;50.178;8.370;2023-05-14T05:25:19;98311.22;;;9.32;100.00
18858;BME280;9558;50.178;8.370;2023-05-14T05:28:06;98322.81;;;9.44;100.00
18858;BME280;9558;50.178;8.370;2023-05-14T05:30:54;98315.38;;;9.58;100.00
18858;BME280;9558;50.178;8.370;2023-05-14T05:33:42;98316.78;;;9.68;100.00
18858;BME280;9558;50.178;8.370;2023-05-14T05:36:29;98318.84;;;9.81;100.00
18858;BME280;9558;50.178;8.370;2023-05-14T05:39:16;98312.34;;;9.94;100.00
18858;BME280;9558;50.178;8.370;2023-05-14T05:42:04;98309.25;;;9.98;100.00
18858;BME280;9558;50.178;8.370;2023-05-14T05:44:51;98310.19;;;10.06;100.00
18858;BME280;9558;50.178;8.370;2023-05-14T05:47:38;98305.16;;;10.12;100.00
18858;BME280;9558;50.178;8.370;2023-05-14T05:50:26;98308.88;;;10.18;100.00
18858;BME280;9558;50.178;8.370;2023-05-14T05:53:12;98307.03;;;10.27;100.00
18858;BME280;9558;50.178;8.370;2023-05-14T05:56:01;98308.78;;;10.34;100.00
18858;BME280;9558;50.178;8.370;2023-05-14T05:58:48;98314.91;;;10.42;100.00
18858;BME280;9558;50.178;8.370;2023-05-14T06:01:34;98317.94;;;10.53;100.00
18858;BME280;9558;50.178;8.370;2023-05-14T06:04:21;98312.38;;;10.65;100.00
18858;BME280;9558;50.178;8.370;2023-05-14T06:07:09;98312.41;;;10.80;100.00
18858;BME280;9558;50.178;8.370;2023-05-14T06:09:56;98316.78;;;11.02;100.00
18858;BME280;9558;50.178;8.370;2023-05-14T06:12:43;98324.13;;;11.14;100.00
18858;BME280;9558;50.178;8.370;2023-05-14T06:15:30;98316.97;;;11.39;100.00
18858;BME280;9558;50.178;8.370;2023-05-14T06:18:17;98323.94;;;11.68;100.00
18858;BME280;9558;50.178;8.370;2023-05-14T06:21:04;98324.34;;;11.95;100.00
18858;BME280;9558;50.178;8.370;2023-05-14T06:23:52;98322.00;;;12.15;100.00
18858;BME280;9558;50.178;8.370;2023-05-14T06:26:38;98322.22;;;12.35;100.00
18858;BME280;9558;50.178;8.370;2023-05-14T06:29:25;98323.19;;;12.49;100.00
18858;BME280;9558;50.178;8.370;2023-05-14T06:32:12;98317.13;;;12.64;100.00
18858;BME280;9558;50.178;8.370;2023-05-14T06:34:59;98321.47;;;12.78;100.00
18858;BME280;9558;50.178;8.370;2023-05-14T06:37:46;98325.22;;;12.97;100.00
18858;BME280;9558;50.178;8.370;2023-05-14T06:40:35;98326.22;;;13.18;100.00
18858;BME280;9558;50.178;8.370;2023-05-14T06:43:21;98327.44;;;13.43;100.00
18858;BME280;9558;50.178;8.370;2023-05-14T06:46:08;98323.94;;;13.64;100.00
18858;BME280;9558;50.178;8.370;2023-05-14T06:48:55;98325.91;;;13.91;100.00
18858;BME280;9558;50.178;8.370;2023-05-14T06:51:42;98325.75;;;14.06;100.00
18858;BME280;9558;50.178;8.370;2023-05-14T06:54:29;98320.06;;;14.30;100.00
18858;BME280;9558;50.178;8.370;2023-05-14T06:57:17;98320.53;;;14.54;100.00
18858;BME280;9558;50.178;8.370;2023-05-14T07:00:05;98318.59;;;15.03;100.00
18858;BME280;9558;50.178;8.370;2023-05-14T07:02:53;98326.41;;;15.50;100.00
18858;BME280;9558;50.178;8.370;2023-05-14T07:05:39;98317.31;;;15.86;100.00
18858;BME280;9558;50.178;8.370;2023-05-14T07:08:26;98318.00;;;16.20;96.15
18858;BME280;9558;50.178;8.370;2023-05-14T07:11:13;98321.34;;;16.40;92.32
18858;BME280;9558;50.178;8.370;2023-05-14T07:14:02;98327.06;;;16.56;89.88
18858;BME280;9558;50.178;8.370;2023-05-14T07:16:48;98327.84;;;16.63;84.37
18858;BME280;9558;50.178;8.370;2023-05-14T07:19:35;98320.38;;;16.67;83.32
18858;BME280;9558;50.178;8.370;2023-05-14T07:22:22;98318.34;;;16.69;82.96
18858;BME280;9558;50.178;8.370;2023-05-14T07:25:09;98315.22;;;16.92;80.79
18858;BME280;9558;50.178;8.370;2023-05-14T07:27:55;98312.06;;;17.08;78.96
18858;BME280;9558;50.178;8.370;2023-05-14T07:30:43;98306.03;;;17.33;78.75
18858;BME280;9558;50.178;8.370;2023-05-14T07:33:30;98306.78;;;17.59;74.99
18858;BME280;9558;50.178;8.370;2023-05-14T07:36:17;98310.28;;;17.90;76.43
18858;BME280;9558;50.178;8.370;2023-05-14T07:39:04;98299.69;;;18.03;74.05
18858;BME280;9558;50.178;8.370;2023-05-14T07:41:51;98302.13;;;18.35;72.34
18858;BME280;9558;50.178;8.370;2023-05-14T07:44:39;98302.44;;;18.39;68.55
18858;BME280;9558;50.178;8.370;2023-05-14T07:47:28;98301.53;;;18.33;69.73
18858;BME280;9558;50.178;8.370;2023-05-14T07:50:15;98294.34;;;18.28;71.39
18858;BME280;9558;50.178;8.370;2023-05-14T07:53:02;98295.13;;;18.29;70.86
18858;BME280;9558;50.178;8.370;2023-05-14T07:55:49;98299.09;;;18.20;66.90
18858;BME280;9558;50.178;8.370;2023-05-14T07:58:36;98300.50;;;18.04;67.50
18858;BME280;9558;50.178;8.370;2023-05-14T08:01:23;98298.16;;;17.95;69.25
18858;BME280;9558;50.178;8.370;2023-05-14T08:04:12;98295.22;;;17.92;67.17
18858;BME280;9558;50.178;8.370;2023-05-14T08:07:00;98294.31;;;17.98;67.61
18858;BME280;9558;50.178;8.370;2023-05-14T08:09:47;98291.78;;;18.22;67.52
18858;BME280;9558;50.178;8.370;2023-05-14T08:12:34;98291.72;;;18.28;65.54
18858;BME280;9558;50.178;8.370;2023-05-14T08:15:21;98291.19;;;18.38;64.81
18858;BME280;9558;50.178;8.370;2023-05-14T08:18:08;98288.09;;;18.29;62.67
18858;BME280;9558;50.178;8.370;2023-05-14T08:20:56;98288.03;;;18.18;64.21
18858;BME280;9558;50.178;8.370;2023-05-14T08:23:43;98277.03;;;18.09;63.79
18858;BME280;9558;50.178;8.370;2023-05-14T08:26:30;98277.19;;;19.10;64.14
18858;BME280;9558;50.178;8.370;2023-05-14T08:29:17;98275.88;;;20.25;61.62
18858;BME280;9558;50.178;8.370;2023-05-14T08:32:04;98274.56;;;20.56;62.34
18858;BME280;9558;50.178;8.370;2023-05-14T08:34:51;98275.84;;;20.82;57.96
18858;BME280;9558;50.178;8.370;2023-05-14T08:37:39;98282.75;;;21.62;56.63
18858;BME280;9558;50.178;8.370;2023-05-14T08:40:26;98270.31;;;22.29;55.42
18858;BME280;9558;50.178;8.370;2023-05-14T08:43:15;98267.03;;;22.16;54.56
18858;BME280;9558;50.178;8.370;2023-05-14T08:46:05;98267.28;;;22.37;52.00
18858;BME280;9558;50.178;8.370;2023-05-14T08:48:56;98265.50;;;22.20;53.68
18858;BME280;9558;50.178;8.370;2023-05-14T08:51:47;98259.06;;;21.84;51.15
18858;BME280;9558;50.178;8.370;2023-05-14T08:54:35;98259.38;;;21.48;51.27
18858;BME280;9558;50.178;8.370;2023-05-14T08:57:24;98248.88;;;20.92;52.07
18858;BME280;9558;50.178;8.370;2023-05-14T09:00:12;98251.59;;;20.80;54.35
18858;BME280;9558;50.178;8.370;2023-05-14T09:03:00;98234.38;;;20.73;54.94
18858;BME280;9558;50.178;8.370;2023-05-14T09:05:48;98234.50;;;20.49;55.29
18858;BME280;9558;50.178;8.370;2023-05-14T09:08:37;98234.47;;;20.32;56.27
18858;BME280;9558;50.178;8.370;2023-05-14T09:11:25;98224.88;;;20.09;54.50
18858;BME280;9558;50.178;8.370;2023-05-14T09:14:12;98226.00;;;20.13;56.03
18858;BME280;9558;50.178;8.370;2023-05-14T09:16:58;98229.81;;;20.05;56.39
18858;BME280;9558;50.178;8.370;2023-05-14T09:19:46;98227.97;;;20.06;56.32
18858;BME280;9558;50.178;8.370;2023-05-14T09:22:33;98227.75;;;20.07;56.27
18858;BME280;9558;50.178;8.370;2023-05-14T09:25:25;98226.00;;;20.13;56.87
18858;BME280;9558;50.178;8.370;2023-05-14T09:28:15;98223.72;;;20.16;56.25
18858;BME280;9558;50.178;8.370;2023-05-14T09:31:02;98223.38;;;20.13;55.38
18858;BME280;9558;50.178;8.370;2023-05-14T09:33:49;98220.81;;;20.01;55.48
18858;BME280;9558;50.178;8.370;2023-05-14T09:36:36;98214.53;;;20.02;56.57
18858;BME280;9558;50.178;8.370;2023-05-14T09:39:24;98218.19;;;20.01;56.53
18858;BME280;9558;50.178;8.370;2023-05-14T09:42:11;98224.00;;;20.03;55.60
18858;BME280;9558;50.178;8.370;2023-05-14T09:44:59;98228.03;;;19.94;55.85
18858;BME280;9558;50.178;8.370;2023-05-14T09:47:46;98221.09;;;19.76;55.32
18858;BME280;9558;50.178;8.370;2023-05-14T09:50:40;98220.34;;;19.63;56.91
18858;BME280;9558;50.178;8.370;2023-05-14T09:53:28;98226.31;;;19.47;54.31
18858;BME280;9558;50.178;8.370;2023-05-14T09:56:15;98227.34;;;19.34;54.47
18858;BME280;9558;50.178;8.370;2023-05-14T09:59:03;98224.53;;;19.24;55.39
18858;BME280;9558;50.178;8.370;2023-05-14T10:01:51;98229.56;;;19.13;54.31
18858;BME280;9558;50.178;8.370;2023-05-14T10:04:39;98228.66;;;19.08;55.22
18858;BME280;9558;50.178;8.370;2023-05-14T10:07:28;98222.13;;;18.98;57.24
18858;BME280;9558;50.178;8.370;2023-05-14T10:10:18;98230.34;;;19.02;57.25
18858;BME280;9558;50.178;8.370;2023-05-14T10:13:08;98220.31;;;19.11;58.44
18858;BME280;9558;50.178;8.370;2023-05-14T10:16:00;98219.16;;;19.19;57.88
18858;BME280;9558;50.178;8.370;2023-05-14T10:18:55;98218.84;;;19.15;57.13
18858;BME280;9558;50.178;8.370;2023-05-14T10:21:47;98229.75;;;19.12;58.17
18858;BME280;9558;50.178;8.370;2023-05-14T10:24:36;98227.28;;;19.05;56.47
18858;BME280;9558;50.178;8.370;2023-05-14T10:27:23;98228.81;;;18.82;57.82
18858;BME280;9558;50.178;8.370;2023-05-14T10:30:11;98222.53;;;18.72;57.82
18858;BME280;9558;50.178;8.370;2023-05-14T10:33:08;98217.75;;;18.57;58.63
18858;BME280;9558;50.178;8.370;2023-05-14T10:36:04;98214.88;;;18.46;58.86
18858;BME280;9558;50.178;8.370;2023-05-14T10:38:54;98222.16;;;18.44;59.60
18858;BME280;9558;50.178;8.370;2023-05-14T10:41:41;98218.59;;;18.39;59.99
18858;BME280;9558;50.178;8.370;2023-05-14T10:44:28;98218.50;;;18.45;60.38
18858;BME280;9558;50.178;8.370;2023-05-14T10:47:15;98210.63;;;18.34;62.42
18858;BME280;9558;50.178;8.370;2023-05-14T10:50:04;98210.88;;;18.44;60.69
18858;BME280;9558;50.178;8.370;2023-05-14T10:52:53;98209.53;;;18.53;60.44
18858;BME280;9558;50.178;8.370;2023-05-14T10:55:42;98206.47;;;18.68;61.12
18858;BME280;9558;50.178;8.370;2023-05-14T10:58:30;98209.03;;;18.87;61.42
18858;BME280;9558;50.178;8.370;2023-05-14T11:01:22;98210.94;;;19.03;60.71
18858;BME280;9558;50.178;8.370;2023-05-14T11:04:16;98206.16;;;19.12;60.09
18858;BME280;9558;50.178;8.370;2023-05-14T11:07:04;98201.94;;;19.23;59.93
18858;BME280;9558;50.178;8.370;2023-05-14T11:09:52;98198.13;;;19.30;59.82
18858;BME280;9558;50.178;8.370;2023-05-14T11:12:46;98198.97;;;19.31;59.23
18858;BME280;9558;50.178;8.370;2023-05-14T11:15:33;98190.59;;;19.46;59.77
18858;BME280;9558;50.178;8.370;2023-05-14T11:18:26;98192.72;;;19.61;59.60
18858;BME280;9558;50.178;8.370;2023-05-14T11:21:15;98195.78;;;19.69;57.78
18858;BME280;9558;50.178;8.370;2023-05-14T11:24:03;98196.56;;;19.70;58.75
18858;BME280;9558;50.178;8.370;2023-05-14T11:26:51;98178.19;;;19.70;59.01
18858;BME280;9558;50.178;8.370;2023-05-14T11:29:42;98185.59;;;19.73;59.45
18858;BME280;9558;50.178;8.370;2023-05-14T11:32:31;98179.91;;;19.76;58.95
18858;BME280;9558;50.178;8.370;2023-05-14T11:35:17;98177.72;;;19.85;58.09
18858;BME280;9558;50.178;8.370;2023-05-14T11:38:04;98175.41;;;19.89;57.08
18858;BME280;9558;50.178;8.370;2023-05-14T11:40:51;98168.66;;;19.93;57.64
18858;BME280;9558;50.178;8.370;2023-05-14T11:43:40;98166.78;;;20.05;55.29
18858;BME280;9558;50.178;8.370;2023-05-14T11:46:28;98161.03;;;20.08;56.30
18858;BME280;9558;50.178;8.370;2023-05-14T11:49:15;98178.31;;;20.04;56.64
18858;BME280;9558;50.178;8.370;2023-05-14T11:52:03;98163.25;;;19.99;56.13
18858;BME280;9558;50.178;8.370;2023-05-14T11:54:50;98156.00;;;19.90;57.25
18858;BME280;9558;50.178;8.370;2023-05-14T11:57:37;98148.13;;;19.90;58.17
18858;BME280;9558;50.178;8.370;2023-05-14T12:00:26;98154.09;;;19.73;56.71
18858;BME280;9558;50.178;8.370;2023-05-14T12:03:13;98151.50;;;19.61;56.86
18858;BME280;9558;50.178;8.370;2023-05-14T12:06:01;98147.69;;;19.52;57.14
18858;BME280;9558;50.178;8.370;2023-05-14T12:08:51;98147.47;;;19.42;56.77
18858;BME280;9558;50.178;8.370;2023-05-14T12:11:41;98150.34;;;19.28;57.03
18858;BME280;9558;50.178;8.370;2023-05-14T12:14:27;98149.50;;;19.11;57.43
18858;BME280;9558;50.178;8.370;2023-05-14T12:17:17;98148.13;;;18.96;58.24
18858;BME280;9558;50.178;8.370;2023-05-14T12:20:07;98143.78;;;18.78;58.17
18858;BME280;9558;50.178;8.370;2023-05-14T12:22:55;98146.06;;;18.63;59.68
18858;BME280;9558;50.178;8.370;2023-05-14T12:25:49;98137.88;;;18.59;59.89
18858;BME280;9558;50.178;8.370;2023-05-14T12:28:38;98136.59;;;18.50;60.63
18858;BME280;9558;50.178;8.370;2023-05-14T12:31:27;98129.66;;;18.56;60.79
18858;BME280;9558;50.178;8.370;2023-05-14T12:34:16;98124.63;;;18.66;61.23
18858;BME280;9558;50.178;8.370;2023-05-14T12:37:03;98108.69;;;18.79;61.71
18858;BME280;9558;50.178;8.370;2023-05-14T12:39:50;98108.00;;;18.96;61.71
18858;BME280;9558;50.178;8.370;2023-05-14T12:42:37;98106.94;;;19.09;62.06
18858;BME280;9558;50.178;8.370;2023-05-14T12:45:24;98109.56;;;19.21;61.65
18858;BME280;9558;50.178;8.370;2023-05-14T12:48:10;98113.28;;;19.25;61.87
18858;BME280;9558;50.178;8.370;2023-05-14T12:50:59;98098.59;;;19.24;61.92
18858;BME280;9558;50.178;8.370;2023-05-14T12:53:45;98103.59;;;19.25;61.54
18858;BME280;9558;50.178;8.370;2023-05-14T12:56:32;98106.13;;;19.20;61.37
18858;BME280;9558;50.178;8.370;2023-05-14T12:59:19;98096.97;;;19.23;60.52
18858;BME280;9558;50.178;8.370;2023-05-14T13:02:06;98091.25;;;19.26;60.01
18858;BME280;9558;50.178;8.370;2023-05-14T13:04:53;98098.13;;;19.27;59.96
18858;BME280;9558;50.178;8.370;2023-05-14T13:07:41;98090.94;;;19.22;59.44
18858;BME280;9558;50.178;8.370;2023-05-14T13:10:28;98084.56;;;19.18;59.55
18858;BME280;9558;50.178;8.370;2023-05-14T13:13:15;98092.69;;;19.16;59.12
18858;BME280;9558;50.178;8.370;2023-05-14T13:16:02;98082.06;;;19.11;59.26
18858;BME280;9558;50.178;8.370;2023-05-14T13:18:49;98076.59;;;19.13;57.94
18858;BME280;9558;50.178;8.370;2023-05-14T13:21:36;98069.44;;;19.08;57.96
18858;BME280;9558;50.178;8.370;2023-05-14T13:24:24;98064.00;;;18.98;59.67
18858;BME280;9558;50.178;8.370;2023-05-14T13:27:11;98061.72;;;18.90;59.06
18858;BME280;9558;50.178;8.370;2023-05-14T13:29:57;98060.13;;;18.89;58.55
18858;BME280;9558;50.178;8.370;2023-05-14T13:32:44;98044.72;;;18.92;57.21
18858;BME280;9558;50.178;8.370;2023-05-14T13:35:31;98046.38;;;19.10;58.23
18858;BME280;9558;50.178;8.370;2023-05-14T13:38:19;98043.50;;;19.24;58.64
18858;BME280;9558;50.178;8.370;2023-05-14T13:41:07;98044.88;;;19.43;59.27
18858;BME280;9558;50.178;8.370;2023-05-14T13:43:54;98044.59;;;19.57;58.49
18858;BME280;9558;50.178;8.370;2023-05-14T13:46:40;98042.91;;;19.67;58.62
18858;BME280;9558;50.178;8.370;2023-05-14T13:49:28;98048.59;;;19.76;57.50
18858;BME280;9558;50.178;8.370;2023-05-14T13:52:15;98044.91;;;19.77;57.68
18858;BME280;9558;50.178;8.370;2023-05-14T13:55:02;98038.78;;;19.83;58.54
18858;BME280;9558;50.178;8.370;2023-05-14T13:57:50;98026.34;;;19.96;58.93
18858;BME280;9558;50.178;8.370;2023-05-14T14:00:38;98026.47;;;20.06;59.21
18858;BME280;9558;50.178;8.370;2023-05-14T14:03:25;98014.53;;;20.15;58.97
18858;BME280;9558;50.178;8.370;2023-05-14T14:06:12;98019.16;;;20.25;58.88
18858;BME280;9558;50.178;8.370;2023-05-14T14:08:58;98010.53;;;20.30;58.26
18858;BME280;9558;50.178;8.370;2023-05-14T14:11:45;98011.16;;;20.37;57.56
18858;BME280;9558;50.178;8.370;2023-05-14T14:14:34;98006.53;;;20.44;57.67
18858;BME280;9558;50.178;8.370;2023-05-14T14:17:20;98001.88;;;20.51;56.95
18858;BME280;9558;50.178;8.370;2023-05-14T14:20:08;98001.63;;;20.53;56.39
18858;BME280;9558;50.178;8.370;2023-05-14T14:22:55;97997.66;;;20.50;55.18
18858;BME280;9558;50.178;8.370;2023-05-14T14:25:42;98002.53;;;20.42;55.37
18858;BME280;9558;50.178;8.370;2023-05-14T14:28:29;97996.38;;;20.31;56.27
18858;BME280;9558;50.178;8.370;2023-05-14T14:31:17;98011.19;;;20.20;54.21
18858;BME280;9558;50.178;8.370;2023-05-14T14:34:04;98001.91;;;20.12;55.82
18858;BME280;9558;50.178;8.370;2023-05-14T14:36:51;98005.47;;;20.06;56.33
18858;BME280;9558;50.178;8.370;2023-05-14T14:39:38;98006.44;;;20.00;55.95
18858;BME280;9558;50.178;8.370;2023-05-14T14:42:24;97991.03;;;19.87;54.87
18858;BME280;9558;50.178;8.370;2023-05-14T14:45:11;98003.88;;;19.71;55.89
18858;BME280;9558;50.178;8.370;2023-05-14T14:48:25;97997.09;;;19.58;55.95
18858;BME280;9558;50.178;8.370;2023-05-14T14:51:12;97995.88;;;19.49;56.11
18858;BME280;9558;50.178;8.370;2023-05-14T14:53:59;97992.31;;;19.38;56.13
18858;BME280;9558;50.178;8.370;2023-05-14T14:56:46;97983.22;;;19.29;56.83
18858;BME280;9558;50.178;8.370;2023-05-14T14:59:34;97979.47;;;19.25;57.25